Time;durP1;ratioP1;P1;durP2;ratioP2;P2;SDS_P1;SDS_P2;PMS_P1;PMS_P2;Temp;Humidity;BMP_temperature;BMP_pressure;BME280_temperature;BME280_humidity;BME280_pressure;Samples;Min_cycle;Max_cycle;Signal;HPM_P1;HPM_P2
2022/10/16 00:00:51;;;;;;;;;;;;;;;22.19;39.14;99559.78;4514233;31;33177;-88
2022/10/16 00:03:19;;;;;;;;;;;;;;;22.33;38.70;99557.63;4514682;31;34348;-88
2022/10/16 00:05:46;;;;;;;;;;;;;;;22.31;38.53;99554.16;4515254;31;34336;-88
2022/10/16 00:08:13;;;;;;;;;;;;;;;22.06;39.19;99559.22;4515099;31;33432;-87
2022/10/16 00:10:41;;;;;;;;;;;;;;;22.17;38.94;99561.63;4514640;31;33260;-87
2022/10/16 00:13:08;;;;;;;;;;;;;;;21.94;39.28;99554.28;4514666;31;34071;-90
2022/10/16 00:15:36;;;;;;;;;;;;;;;21.46;40.39;99556.44;4514967;31;34063;-89
2022/10/16 00:18:03;;;;;;;;;;;;;;;22.37;38.62;99546.97;4513231;31;34273;-89
2022/10/16 00:20:33;;;;;;;;;;;;;;;22.08;38.88;99553.91;4514898;31;34223;-86
2022/10/16 00:23:20;;;;;;;;;;;;;;;21.82;39.48;99552.88;4499377;31;34866;-88
2022/10/16 00:25:54;;;;;;;;;;;;;;;21.11;40.90;99555.53;4508851;31;35192;-87
2022/10/16 00:28:22;;;;;;;;;;;;;;;21.49;40.01;99561.66;4513901;31;34427;-87
2022/10/16 00:30:50;;;;;;;;;;;;;;;21.09;40.86;99557.31;4501240;31;33366;-88
2022/10/16 00:33:17;;;;;;;;;;;;;;;20.90;41.21;99563.00;4501253;31;34985;-88
2022/10/16 00:35:44;;;;;;;;;;;;;;;21.14;40.65;99571.28;4514773;31;35172;-86
2022/10/16 00:38:11;;;;;;;;;;;;;;;21.24;40.36;99570.12;4514376;31;34348;-89
2022/10/16 00:40:39;;;;;;;;;;;;;;;21.12;40.40;99575.69;4514528;31;34219;-86
2022/10/16 00:43:25;;;;;;;;;;;;;;;21.21;40.17;99580.75;4513037;31;33437;-88
2022/10/16 00:45:52;;;;;;;;;;;;;;;21.10;40.63;99572.22;4514737;31;34427;-86
2022/10/16 00:48:19;;;;;;;;;;;;;;;21.56;39.54;99573.78;4499953;31;34294;-88
2022/10/16 00:50:46;;;;;;;;;;;;;;;21.88;38.82;99567.66;4501371;31;33051;-87
2022/10/16 00:53:14;;;;;;;;;;;;;;;21.70;38.96;99576.06;4514477;31;34577;-90
2022/10/16 00:55:41;;;;;;;;;;;;;;;21.48;39.58;99575.72;4514409;31;34051;-87
2022/10/16 00:58:09;;;;;;;;;;;;;;;21.92;38.57;99576.34;4514580;31;33907;-89
2022/10/16 01:00:38;;;;;;;;;;;;;;;21.77;39.09;99583.75;4500423;31;31861;-89
2022/10/16 01:03:21;;;;;;;;;;;;;;;22.10;38.43;99581.13;4514524;31;33636;-87
2022/10/16 01:05:52;;;;;;;;;;;;;;;22.08;38.21;99581.16;4500450;31;35256;-89
2022/10/16 01:08:22;;;;;;;;;;;;;;;22.36;38.01;99587.50;4500397;31;34491;-88
2022/10/16 01:10:55;;;;;;;;;;;;;;;22.40;38.01;99590.00;4511380;31;33759;-88
2022/10/16 01:13:32;;;;;;;;;;;;;;;22.18;38.46;99594.16;4512030;31;34154;-89
2022/10/16 01:16:23;;;;;;;;;;;;;;;22.19;38.25;99594.09;4512971;31;33756;-88
2022/10/16 01:18:52;;;;;;;;;;;;;;;21.90;38.66;99602.81;4483830;31;35303;-88
2022/10/16 01:21:22;;;;;;;;;;;;;;;22.21;38.20;99594.94;4513200;31;33957;-89
2022/10/16 01:24:07;;;;;;;;;;;;;;;22.05;38.38;99597.13;4513601;31;33956;-88
2022/10/16 01:26:35;;;;;;;;;;;;;;;22.14;38.27;99598.66;4513964;31;35250;-89
2022/10/16 01:29:07;;;;;;;;;;;;;;;22.08;38.31;99604.06;4512613;31;34806;-89
2022/10/16 01:32:02;;;;;;;;;;;;;;;21.87;38.04;99605.53;4509682;31;33512;-88
2022/10/16 01:34:33;;;;;;;;;;;;;;;21.91;38.40;99603.66;4513648;31;35168;-87
2022/10/16 01:37:02;;;;;;;;;;;;;;;21.66;38.86;99612.19;4507793;31;33896;-89
2022/10/16 01:39:30;;;;;;;;;;;;;;;21.61;39.10;99614.09;4499626;31;33985;-89
2022/10/16 01:41:59;;;;;;;;;;;;;;;21.57;39.07;99618.59;4505298;31;33318;-89
2022/10/16 01:44:28;;;;;;;;;;;;;;;21.14;39.46;99616.09;4513744;31;33952;-88
2022/10/16 01:46:56;;;;;;;;;;;;;;;21.34;39.15;99616.50;4501478;31;34056;-88
2022/10/16 01:49:24;;;;;;;;;;;;;;;21.51;38.83;99607.31;4500022;31;34176;-89
2022/10/16 01:51:52;;;;;;;;;;;;;;;21.38;39.08;99615.53;4504244;31;33378;-88
2022/10/16 01:54:19;;;;;;;;;;;;;;;21.57;38.67;99608.03;4513817;31;35166;-87
2022/10/16 01:56:47;;;;;;;;;;;;;;;21.14;39.27;99616.09;4513743;31;35238;-87
2022/10/16 01:59:18;;;;;;;;;;;;;;;20.25;40.70;99614.44;4512415;31;32887;-88
2022/10/16 02:01:47;;;;;;;;;;;;;;;20.95;39.49;99606.84;4503314;31;33673;-88
2022/10/16 02:04:15;;;;;;;;;;;;;;;20.63;40.06;99608.41;4515828;31;34313;-88
2022/10/16 02:06:42;;;;;;;;;;;;;;;20.52;39.58;99619.19;4505080;31;34098;-89
2022/10/16 02:09:10;;;;;;;;;;;;;;;20.31;40.80;99615.19;4514966;31;35399;-88
2022/10/16 02:11:37;;;;;;;;;;;;;;;20.78;39.47;99620.41;4515695;31;33467;-89
2022/10/16 02:14:05;;;;;;;;;;;;;;;20.45;40.48;99625.44;4515870;31;34231;-90
2022/10/16 02:16:37;;;;;;;;;;;;;;;20.94;39.55;99628.84;4515358;31;35094;-89
2022/10/16 02:19:05;;;;;;;;;;;;;;;21.05;39.32;99630.31;4502627;31;35020;-90
2022/10/16 02:21:34;;;;;;;;;;;;;;;21.17;39.20;99633.59;4507668;31;33943;-88
2022/10/16 02:24:13;;;;;;;;;;;;;;;21.02;39.36;99632.16;4515474;31;33922;-88
2022/10/16 02:26:40;;;;;;;;;;;;;;;21.19;39.03;99630.03;4508216;31;34461;-88
2022/10/16 02:29:08;;;;;;;;;;;;;;;21.04;39.19;99627.75;4515336;31;33831;-89
2022/10/16 02:31:35;;;;;;;;;;;;;;;21.01;39.20;99626.03;4510640;31;33496;-88
2022/10/16 02:34:04;;;;;;;;;;;;;;;21.14;38.92;99630.13;4500127;31;35376;-87
2022/10/16 02:36:32;;;;;;;;;;;;;;;21.04;39.02;99628.59;4511879;31;34091;-88
2022/10/16 02:39:03;;;;;;;;;;;;;;;21.07;38.93;99632.94;4514599;31;34917;-88
2022/10/16 02:41:31;;;;;;;;;;;;;;;20.89;39.20;99639.50;4511583;31;33447;-87
2022/10/16 02:43:58;;;;;;;;;;;;;;;20.61;39.14;99647.12;4511575;31;34959;-88
2022/10/16 02:46:25;;;;;;;;;;;;;;;20.72;39.40;99646.88;4515769;31;35179;-88
2022/10/16 02:48:52;;;;;;;;;;;;;;;21.06;38.77;99645.28;4515437;31;35176;-89
2022/10/16 02:51:19;;;;;;;;;;;;;;;20.82;39.24;99641.38;4515410;31;34023;-87
2022/10/16 02:53:46;;;;;;;;;;;;;;;20.61;39.65;99644.50;4515405;31;35059;-88
2022/10/16 02:56:14;;;;;;;;;;;;;;;20.80;39.30;99640.56;4515130;31;34504;-88
2022/10/16 02:58:41;;;;;;;;;;;;;;;20.77;39.32;99643.25;4514979;31;35325;-88
2022/10/16 03:01:10;;;;;;;;;;;;;;;20.73;39.37;99649.50;4515040;31;33600;-88
2022/10/16 03:03:38;;;;;;;;;;;;;;;20.93;38.92;99645.56;4515448;31;34311;-89
2022/10/16 03:06:05;;;;;;;;;;;;;;;20.94;38.77;99649.91;4514904;31;34296;-89
2022/10/16 03:08:33;;;;;;;;;;;;;;;20.89;38.86;99650.91;4514999;31;33995;-88
2022/10/16 03:11:00;;;;;;;;;;;;;;;20.87;38.72;99639.53;4515441;31;33558;-88
2022/10/16 03:13:28;;;;;;;;;;;;;;;20.86;38.81;99648.31;4515564;31;33722;-88
2022/10/16 03:15:55;;;;;;;;;;;;;;;20.89;38.77;99650.91;4515283;31;35354;-88
2022/10/16 03:18:22;;;;;;;;;;;;;;;20.82;39.01;99648.41;4514929;31;34286;-89
2022/10/16 03:20:49;;;;;;;;;;;;;;;20.83;38.77;99658.06;4515111;31;32907;-88
2022/10/16 03:23:16;;;;;;;;;;;;;;;20.78;38.85;99657.28;4514615;31;34221;-88
2022/10/16 03:25:44;;;;;;;;;;;;;;;20.74;39.06;99667.03;4515437;31;34918;-88
2022/10/16 03:28:14;;;;;;;;;;;;;;;20.70;39.17;99665.34;4514945;31;33792;-88
2022/10/16 03:30:42;;;;;;;;;;;;;;;20.70;39.05;99665.34;4515216;31;34265;-88
2022/10/16 03:33:09;;;;;;;;;;;;;;;20.68;39.12;99666.28;4513973;31;34251;-89
2022/10/16 03:35:36;;;;;;;;;;;;;;;20.61;39.24;99669.06;4509331;31;34750;-86
2022/10/16 03:38:04;;;;;;;;;;;;;;;20.59;39.25;99672.63;4511790;31;33480;-90
2022/10/16 03:40:34;;;;;;;;;;;;;;;20.59;39.15;99677.88;4512158;31;34289;-87
2022/10/16 03:43:01;;;;;;;;;;;;;;;20.70;39.04;99680.31;4507423;31;34008;-89
2022/10/16 03:45:28;;;;;;;;;;;;;;;20.62;39.07;99680.47;4515319;31;35229;-89
2022/10/16 03:47:56;;;;;;;;;;;;;;;20.53;39.27;99680.63;4514429;31;34377;-90
2022/10/16 03:50:23;;;;;;;;;;;;;;;20.68;38.87;99682.09;4515045;31;34390;-89
2022/10/16 03:52:50;;;;;;;;;;;;;;;20.51;39.07;99685.06;4515119;31;35011;-89
2022/10/16 03:55:18;;;;;;;;;;;;;;;20.46;39.16;99686.91;4514803;31;34802;-89
2022/10/16 03:57:45;;;;;;;;;;;;;;;20.46;39.04;99689.53;4515430;31;34886;-87
2022/10/16 04:00:12;;;;;;;;;;;;;;;20.55;38.90;99692.00;4515326;31;34235;-89
2022/10/16 04:02:40;;;;;;;;;;;;;;;20.56;38.80;99688.47;4515343;31;34879;-89
2022/10/16 04:05:07;;;;;;;;;;;;;;;20.38;39.23;99692.28;4515167;31;35354;-89
2022/10/16 04:07:34;;;;;;;;;;;;;;;20.56;38.64;99688.47;4514367;31;34370;-89
2022/10/16 04:10:02;;;;;;;;;;;;;;;20.30;39.17;99695.06;4512494;31;33181;-89
2022/10/16 04:12:29;;;;;;;;;;;;;;;20.15;39.70;99703.25;4513898;31;35004;-89
2022/10/16 04:14:56;;;;;;;;;;;;;;;20.18;39.62;99704.06;4515100;31;35316;-90
2022/10/16 04:17:23;;;;;;;;;;;;;;;20.21;39.41;99702.28;4514777;31;34922;-90
2022/10/16 04:19:51;;;;;;;;;;;;;;;20.12;39.52;99703.31;4515159;31;34150;-90
2022/10/16 04:22:18;;;;;;;;;;;;;;;20.24;39.35;99696.97;4515159;31;35127;-88
2022/10/16 04:24:45;;;;;;;;;;;;;;;20.29;39.05;99701.22;4515072;31;33786;-89
2022/10/16 04:27:13;;;;;;;;;;;;;;;20.46;38.55;99697.44;4513860;31;33931;-89
2022/10/16 04:29:40;;;;;;;;;;;;;;;20.19;39.03;99689.13;4515204;31;33086;-90
2022/10/16 04:32:08;;;;;;;;;;;;;;;19.95;39.42;99690.44;4514891;31;33691;-89
2022/10/16 04:34:35;;;;;;;;;;;;;;;20.05;39.28;99697.28;4513831;31;34331;-89
2022/10/16 04:37:02;;;;;;;;;;;;;;;19.79;39.92;99695.09;4508477;31;34268;-87
2022/10/16 04:39:30;;;;;;;;;;;;;;;19.93;39.57;99693.09;4514739;31;33471;-89
2022/10/16 04:41:57;;;;;;;;;;;;;;;19.83;39.69;99701.16;4514475;31;34320;-89
2022/10/16 04:44:24;;;;;;;;;;;;;;;19.98;39.38;99702.69;4514858;31;34475;-88
2022/10/16 04:46:52;;;;;;;;;;;;;;;19.84;39.76;99705.53;4514471;31;34205;-88
2022/10/16 04:49:19;;;;;;;;;;;;;;;19.97;39.45;99706.22;4514806;31;33338;-89
2022/10/16 04:51:46;;;;;;;;;;;;;;;19.95;39.46;99707.97;4514904;31;35033;-89
2022/10/16 04:54:13;;;;;;;;;;;;;;;19.84;39.66;99722.19;4515075;31;34044;-89
2022/10/16 04:56:46;;;;;;;;;;;;;;;19.94;39.43;99712.37;4514168;31;34516;-89
2022/10/16 04:59:14;;;;;;;;;;;;;;;19.98;39.33;99710.56;4515046;31;34140;-89
2022/10/16 05:01:41;;;;;;;;;;;;;;;20.06;38.90;99709.53;4513319;31;34328;-89
2022/10/16 05:04:08;;;;;;;;;;;;;;;20.14;38.50;99714.66;4514667;31;35499;-89
2022/10/16 05:06:36;;;;;;;;;;;;;;;20.07;38.57;99710.41;4514300;31;34180;-89
2022/10/16 05:09:03;;;;;;;;;;;;;;;20.09;38.66;99714.75;4514705;31;33914;-89
2022/10/16 05:11:31;;;;;;;;;;;;;;;20.01;38.73;99716.66;4514605;31;33877;-88
2022/10/16 05:13:58;;;;;;;;;;;;;;;19.82;39.13;99718.72;4514565;31;34504;-89
2022/10/16 05:16:26;;;;;;;;;;;;;;;19.70;39.50;99716.28;4513808;31;33823;-89
2022/10/16 05:18:53;;;;;;;;;;;;;;;19.74;39.60;99723.25;4513964;31;33561;-89
2022/10/16 05:21:36;;;;;;;;;;;;;;;19.69;39.73;99725.06;4514415;31;34194;-89
2022/10/16 05:24:03;;;;;;;;;;;;;;;19.76;39.50;99725.84;4514558;31;35317;-90
2022/10/16 05:26:30;;;;;;;;;;;;;;;19.56;39.94;99726.97;4513438;31;35239;-87
2022/10/16 05:28:58;;;;;;;;;;;;;;;19.68;39.71;99728.59;4498356;31;33729;-89
2022/10/16 05:31:25;;;;;;;;;;;;;;;19.84;39.32;99727.44;4504162;31;34322;-90
2022/10/16 05:33:52;;;;;;;;;;;;;;;19.68;39.55;99725.94;4514490;31;34537;-88
2022/10/16 05:36:19;;;;;;;;;;;;;;;19.66;39.67;99725.09;4509797;31;34032;-88
2022/10/16 05:38:50;;;;;;;;;;;;;;;19.79;39.54;99728.41;4515657;31;33223;-88
2022/10/16 05:41:21;;;;;;;;;;;;;;;19.54;40.17;99735.78;4514608;31;34249;-86
2022/10/16 05:43:48;;;;;;;;;;;;;;;19.58;40.29;99734.84;4500163;31;35408;-89
2022/10/16 05:46:16;;;;;;;;;;;;;;;19.45;40.59;99745.53;4500203;31;34849;-89
2022/10/16 05:48:43;;;;;;;;;;;;;;;19.30;41.03;99737.00;4498906;31;32310;-89
2022/10/16 05:51:11;;;;;;;;;;;;;;;19.45;40.73;99737.66;4500222;31;35025;-89
2022/10/16 05:53:38;;;;;;;;;;;;;;;19.73;39.99;99744.28;4515145;31;34440;-89
2022/10/16 05:56:06;;;;;;;;;;;;;;;19.71;39.87;99752.22;4515618;31;35329;-88
2022/10/16 05:58:35;;;;;;;;;;;;;;;19.52;40.36;99748.97;4498967;31;33383;-88
2022/10/16 06:01:06;;;;;;;;;;;;;;;19.53;40.67;99750.69;4510215;31;34442;-85
2022/10/16 06:03:35;;;;;;;;;;;;;;;19.56;40.52;99749.78;4516479;31;34271;-93
2022/10/16 06:06:15;;;;;;;;;;;;;;;19.65;40.40;99755.78;4515464;31;34281;-87
2022/10/16 06:08:43;;;;;;;;;;;;;;;19.73;40.30;99760.94;4500168;31;33245;-87
2022/10/16 06:11:11;;;;;;;;;;;;;;;19.76;40.42;99765.28;4501072;31;34361;-88
2022/10/16 06:13:38;;;;;;;;;;;;;;;19.38;41.17;99775.44;4516147;31;35169;-88
2022/10/16 06:16:06;;;;;;;;;;;;;;;19.29;40.59;99780.81;4515370;31;34122;-86
2022/10/16 06:18:34;;;;;;;;;;;;;;;19.46;40.52;99772.69;4499984;31;33421;-85
2022/10/16 06:21:06;;;;;;;;;;;;;;;19.07;41.34;99784.59;4510401;31;33971;-87
2022/10/16 06:23:34;;;;;;;;;;;;;;;19.49;40.95;99784.94;4510518;31;35112;-87
2022/10/16 06:26:08;;;;;;;;;;;;;;;19.24;40.69;99787.87;4515603;31;34382;-87
2022/10/16 06:28:35;;;;;;;;;;;;;;;19.51;40.78;99797.19;4515195;31;33318;-86
2022/10/16 06:31:03;;;;;;;;;;;;;;;19.72;40.25;99808.31;4515502;31;34072;-87
2022/10/16 06:33:34;;;;;;;;;;;;;;;19.48;41.22;99809.50;4502675;31;35329;-86
2022/10/16 06:36:02;;;;;;;;;;;;;;;19.12;41.96;99811.69;4515666;31;33696;-86
2022/10/16 06:38:30;;;;;;;;;;;;;;;19.55;40.24;99798.03;4513371;31;33209;-86
2022/10/16 06:40:57;;;;;;;;;;;;;;;19.51;40.62;99806.81;4515912;31;33846;-87
2022/10/16 06:43:25;;;;;;;;;;;;;;;19.76;39.98;99805.63;4508496;31;33984;-89
2022/10/16 06:45:53;;;;;;;;;;;;;;;18.32;42.72;99817.72;4514509;31;33284;-87
2022/10/16 06:48:20;;;;;;;;;;;;;;;18.29;43.22;99820.34;4515504;31;34159;-86
2022/10/16 06:50:57;;;;;;;;;;;;;;;18.91;41.57;99833.84;4515802;31;34142;-86
2022/10/16 06:53:24;;;;;;;;;;;;;;;18.12;43.15;99838.88;4515787;31;33989;-86
2022/10/16 06:55:51;;;;;;;;;;;;;;;18.14;42.96;99833.59;4512586;31;33933;-88
2022/10/16 06:58:18;;;;;;;;;;;;;;;19.05;41.36;99846.81;4499433;31;34168;-86
2022/10/16 07:00:46;;;;;;;;;;;;;;;18.78;42.00;99843.56;4498996;31;34771;-87
2022/10/16 07:03:13;;;;;;;;;;;;;;;18.81;41.56;99840.94;4499538;31;34035;-87
2022/10/16 07:05:41;;;;;;;;;;;;;;;19.21;41.26;99843.16;4499830;31;35192;-87
2022/10/16 07:08:08;;;;;;;;;;;;;;;18.78;42.18;99840.94;4499912;31;33512;-86
2022/10/16 07:10:35;;;;;;;;;;;;;;;19.32;40.92;99846.53;4499850;31;34196;-88
2022/10/16 07:13:03;;;;;;;;;;;;;;;19.63;40.33;99848.78;4499966;31;34256;-92
2022/10/16 07:15:30;;;;;;;;;;;;;;;19.79;39.79;99858.22;4498496;31;34163;-88
2022/10/16 07:17:57;;;;;;;;;;;;;;;19.98;39.59;99857.97;4499837;31;33370;-87
2022/10/16 07:20:24;;;;;;;;;;;;;;;19.69;39.75;99849.56;4499723;31;35171;-88
2022/10/16 07:22:51;;;;;;;;;;;;;;;19.31;41.04;99859.66;4499582;31;34281;-87
2022/10/16 07:25:19;;;;;;;;;;;;;;;19.16;40.98;99872.09;4499510;31;34093;-88
2022/10/16 07:27:46;;;;;;;;;;;;;;;18.81;41.81;99866.34;4499718;31;33335;-88
2022/10/16 07:30:13;;;;;;;;;;;;;;;18.46;42.91;99864.87;4499544;31;34247;-87
2022/10/16 07:32:40;;;;;;;;;;;;;;;19.09;41.60;99862.56;4508560;31;35228;-87
2022/10/16 07:35:08;;;;;;;;;;;;;;;17.46;45.48;99865.44;4501489;31;34699;-86
2022/10/16 07:37:35;;;;;;;;;;;;;;;17.94;44.67;99858.22;4502776;31;33971;-88
2022/10/16 07:40:02;;;;;;;;;;;;;;;18.01;43.76;99866.06;4507021;31;34882;-87
2022/10/16 07:42:29;;;;;;;;;;;;;;;18.64;43.18;99869.09;4499475;31;34987;-88
2022/10/16 07:44:56;;;;;;;;;;;;;;;19.24;41.87;99865.88;4515753;31;33456;-88
2022/10/16 07:47:24;;;;;;;;;;;;;;;19.37;41.74;99876.25;4515102;31;33413;-88
2022/10/16 07:49:52;;;;;;;;;;;;;;;19.38;42.35;99877.09;4515544;31;34843;-88
2022/10/16 07:52:19;;;;;;;;;;;;;;;19.81;40.93;99874.84;4515528;31;34387;-87
2022/10/16 07:54:46;;;;;;;;;;;;;;;18.66;42.53;99880.44;4515400;31;34320;-87
2022/10/16 07:57:19;;;;;;;;;;;;;;;18.56;42.98;99884.91;4515253;31;34409;-88
2022/10/16 07:59:46;;;;;;;;;;;;;;;18.79;42.31;99892.63;4514970;31;34567;-87
2022/10/16 08:02:13;;;;;;;;;;;;;;;19.01;42.24;99903.78;4515081;31;35174;-87
2022/10/16 08:04:41;;;;;;;;;;;;;;;19.26;41.90;99904.41;4505177;31;34827;-86
2022/10/16 08:07:08;;;;;;;;;;;;;;;19.10;42.16;99901.09;4499585;31;33652;-87
2022/10/16 08:09:35;;;;;;;;;;;;;;;19.57;41.89;99906.69;4504893;31;34105;-87
2022/10/16 08:12:04;;;;;;;;;;;;;;;19.41;41.78;99906.00;4512646;31;35318;-86
2022/10/16 08:14:31;;;;;;;;;;;;;;;18.12;44.83;99916.72;4511045;31;34713;-88
2022/10/16 08:16:58;;;;;;;;;;;;;;;19.47;41.79;99915.56;4506824;31;32200;-92
2022/10/16 08:19:25;;;;;;;;;;;;;;;19.56;41.42;99918.09;4509213;31;34119;-89
2022/10/16 08:21:52;;;;;;;;;;;;;;;19.60;41.58;99919.81;4507847;31;34955;-88
2022/10/16 08:24:20;;;;;;;;;;;;;;;19.74;41.46;99917.94;4508567;31;34456;-91
2022/10/16 08:26:47;;;;;;;;;;;;;;;19.97;40.72;99911.50;4511055;31;33168;-87
2022/10/16 08:29:14;;;;;;;;;;;;;;;19.82;41.10;99930.97;4503113;31;34279;-89
2022/10/16 08:31:41;;;;;;;;;;;;;;;18.59;43.95;99923.38;4514801;31;34275;-88
2022/10/16 08:34:09;;;;;;;;;;;;;;;19.05;42.57;99930.91;4515119;31;34019;-88
2022/10/16 08:36:36;;;;;;;;;;;;;;;19.94;41.02;99920.28;4514990;31;32877;-90
2022/10/16 08:39:03;;;;;;;;;;;;;;;20.20;40.74;99927.84;4514573;31;34197;-90
2022/10/16 08:41:40;;;;;;;;;;;;;;;20.14;41.49;99926.13;4514903;31;34399;-89
2022/10/16 08:44:13;;;;;;;;;;;;;;;21.12;39.12;99924.59;4487636;31;865795;-88
2022/10/16 08:46:47;;;;;;;;;;;;;;;20.40;39.58;99931.03;4499286;31;34283;-88
2022/10/16 08:49:16;;;;;;;;;;;;;;;19.79;41.22;99939.78;4498006;31;34278;-89
2022/10/16 08:51:46;;;;;;;;;;;;;;;20.18;40.43;99925.19;4497963;31;34001;-89
2022/10/16 08:54:19;;;;;;;;;;;;;;;20.84;39.74;99932.13;4508816;31;34905;-89
2022/10/16 08:56:46;;;;;;;;;;;;;;;19.76;42.14;99939.81;4512089;31;31912;-87
2022/10/16 08:59:13;;;;;;;;;;;;;;;20.24;40.50;99939.19;4514678;31;34032;-90
2022/10/16 09:01:42;;;;;;;;;;;;;;;20.55;39.80;99947.53;4512920;31;34435;-88
2022/10/16 09:04:28;;;;;;;;;;;;;;;20.53;39.87;99949.31;4500165;31;33830;-90
2022/10/16 09:06:58;;;;;;;;;;;;;;;20.40;40.50;99951.22;4513938;31;34217;-88
2022/10/16 09:09:31;;;;;;;;;;;;;;;20.68;39.83;99945.56;4503787;31;34947;-88
2022/10/16 09:12:01;;;;;;;;;;;;;;;20.89;39.51;99940.81;4514500;31;35182;-86
2022/10/16 09:14:41;;;;;;;;;;;;;;;20.69;39.82;99950.81;4513390;31;34047;-88
2022/10/16 09:17:08;;;;;;;;;;;;;;;20.61;40.76;99950.09;4514734;31;34034;-88
2022/10/16 09:19:42;;;;;;;;;;;;;;;20.85;39.49;99952.31;4513903;31;35310;-88
2022/10/16 09:22:14;;;;;;;;;;;;;;;20.96;39.75;99951.25;4513675;31;33815;-91
2022/10/16 09:24:42;;;;;;;;;;;;;;;20.84;40.07;99953.22;4514078;31;34238;-88
2022/10/16 09:27:12;;;;;;;;;;;;;;;20.34;40.22;99952.22;4512551;31;33104;-89
2022/10/16 09:29:40;;;;;;;;;;;;;;;20.84;39.93;99942.66;4513299;31;34983;-90
2022/10/16 09:32:15;;;;;;;;;;;;;;;20.62;40.54;99942.16;4513922;31;35223;-87
2022/10/16 09:34:49;;;;;;;;;;;;;;;19.72;41.88;99951.25;4500619;31;34887;-87
2022/10/16 09:37:18;;;;;;;;;;;;;;;20.28;41.12;99954.06;4505234;31;33551;-88
2022/10/16 09:39:46;;;;;;;;;;;;;;;19.89;41.59;99954.56;4512954;31;33418;-87
2022/10/16 09:42:17;;;;;;;;;;;;;;;19.58;42.63;99958.41;4514188;31;34491;-87
2022/10/16 09:44:47;;;;;;;;;;;;;;;19.65;42.73;99950.44;4499572;31;34318;-87
2022/10/16 09:47:17;;;;;;;;;;;;;;;20.41;41.27;99950.34;4497162;31;33032;-88
2022/10/16 09:49:59;;;;;;;;;;;;;;;19.97;42.09;99959.72;4508177;31;34303;-88
2022/10/16 09:52:26;;;;;;;;;;;;;;;20.89;40.70;99967.19;4511512;31;34246;-86
2022/10/16 09:54:54;;;;;;;;;;;;;;;20.22;41.52;99962.03;4510010;31;34909;-87
2022/10/16 09:57:21;;;;;;;;;;;;;;;20.24;41.85;99971.66;4512371;31;33218;-89
2022/10/16 09:59:49;;;;;;;;;;;;;;;21.09;39.87;99976.50;4510268;31;33711;-88
2022/10/16 10:02:18;;;;;;;;;;;;;;;21.63;38.77;99965.91;4500038;31;35167;-88
2022/10/16 10:04:50;;;;;;;;;;;;;;;20.82;40.73;99959.41;4500256;31;34298;-85
2022/10/16 10:07:18;;;;;;;;;;;;;;;20.90;40.41;99968.91;4496315;31;33246;-90
2022/10/16 10:09:46;;;;;;;;;;;;;;;21.13;39.77;99962.37;4510682;31;33625;-88
2022/10/16 10:12:20;;;;;;;;;;;;;;;21.74;38.90;99963.00;4504359;31;34017;-88
2022/10/16 10:14:53;;;;;;;;;;;;;;;22.34;38.30;99945.00;4510587;31;34228;-85
2022/10/16 10:17:24;;;;;;;;;;;;;;;22.39;37.26;99955.50;4512068;31;33163;-89
2022/10/16 10:19:55;;;;;;;;;;;;;;;21.29;39.20;99955.03;4510335;31;34067;-87
2022/10/16 10:22:45;;;;;;;;;;;;;;;21.94;39.93;99958.22;4504098;31;34945;-86
2022/10/16 10:25:12;;;;;;;;;;;;;;;22.29;37.39;99941.63;4505641;31;35162;-88
2022/10/16 10:27:58;;;;;;;;;;;;;;;21.95;37.93;99945.88;4515440;31;33268;-88
2022/10/16 10:30:47;;;;;;;;;;;;;;;21.62;38.72;99956.22;4511284;31;34336;-85
2022/10/16 10:33:27;;;;;;;;;;;;;;;21.33;39.62;99941.84;4507118;31;34363;-86
2022/10/16 10:36:13;;;;;;;;;;;;;;;21.23;39.88;99945.50;4512593;31;34860;-86
2022/10/16 10:38:43;;;;;;;;;;;;;;;21.43;39.82;99936.38;4513924;31;31676;-93
2022/10/16 10:41:19;;;;;;;;;;;;;;;22.23;38.58;99935.59;4504015;31;35087;-86
2022/10/16 10:43:47;;;;;;;;;;;;;;;21.90;38.62;99938.06;4509891;31;35277;-87
2022/10/16 10:46:18;;;;;;;;;;;;;;;21.55;39.49;99937.00;4510261;31;34164;-89
2022/10/16 10:48:52;;;;;;;;;;;;;;;20.71;40.56;99941.13;4502891;31;33789;-86
2022/10/16 10:51:23;;;;;;;;;;;;;;;21.54;39.96;99943.19;4501780;31;33550;-87
2022/10/16 10:54:10;;;;;;;;;;;;;;;21.87;39.25;99935.47;4513305;31;34146;-87
2022/10/16 10:56:43;;;;;;;;;;;;;;;21.66;39.17;99938.56;4508164;31;34619;-88
2022/10/16 10:59:25;;;;;;;;;;;;;;;22.39;37.78;99938.75;4507749;31;33834;-84
2022/10/16 11:01:55;;;;;;;;;;;;;;;21.63;39.25;99944.78;4503368;31;33722;-86
2022/10/16 11:04:32;;;;;;;;;;;;;;;21.86;38.74;99947.81;4505514;31;34160;-90
2022/10/16 11:07:04;;;;;;;;;;;;;;;21.28;39.34;99940.13;4509842;31;34311;-85
2022/10/16 11:09:41;;;;;;;;;;;;;;;21.80;39.19;99937.38;4503706;31;33936;-86
2022/10/16 11:12:12;;;;;;;;;;;;;;;21.84;38.68;99939.03;4498353;31;34287;-92
2022/10/16 11:14:45;;;;;;;;;;;;;;;22.21;37.58;99927.72;4513247;31;34538;-86
2022/10/16 11:17:22;;;;;;;;;;;;;;;23.03;37.63;99937.22;4511466;31;34237;-85
2022/10/16 11:20:05;;;;;;;;;;;;;;;23.22;36.58;99930.56;4509304;31;33482;-87
2022/10/16 11:22:59;;;;;;;;;;;;;;;22.70;36.41;99929.22;4508985;31;32755;-84
2022/10/16 11:25:27;;;;;;;;;;;;;;;22.34;37.04;99923.88;4508601;31;33401;-89
2022/10/16 11:28:09;;;;;;;;;;;;;;;21.95;38.17;99927.41;4509111;31;33744;-83
2022/10/16 11:30:59;;;;;;;;;;;;;;;22.91;36.38;99922.53;4506504;31;34167;-89
2022/10/16 11:33:31;;;;;;;;;;;;;;;23.71;34.87;99913.31;4495657;31;32217;-83
2022/10/16 11:36:07;;;;;;;;;;;;;;;23.63;35.22;99920.56;4497385;31;33966;-84
2022/10/16 11:38:35;;;;;;;;;;;;;;;23.22;35.82;99917.31;4506367;31;33964;-84
2022/10/16 11:41:04;;;;;;;;;;;;;;;23.20;36.10;99918.28;4506736;31;33576;-85
2022/10/16 11:43:39;;;;;;;;;;;;;;;22.87;37.29;99925.25;4512024;31;33842;-88
2022/10/16 11:46:15;;;;;;;;;;;;;;;23.48;35.62;99919.22;4497223;31;33180;-88
2022/10/16 11:48:45;;;;;;;;;;;;;;;23.98;35.12;99924.87;4499851;31;34343;-86
2022/10/16 11:51:19;;;;;;;;;;;;;;;23.37;35.90;99931.03;4512765;31;34138;-91
2022/10/16 11:53:53;;;;;;;;;;;;;;;24.36;35.15;99921.94;4508314;31;33499;-93
2022/10/16 11:56:20;;;;;;;;;;;;;;;23.33;35.74;99926.72;4509777;31;35243;-86
2022/10/16 11:58:47;;;;;;;;;;;;;;;24.38;34.24;99925.44;4507310;31;34246;-86
2022/10/16 12:01:17;;;;;;;;;;;;;;;24.41;33.49;99920.06;4511540;31;34215;-89
2022/10/16 12:04:03;;;;;;;;;;;;;;;24.71;33.34;99910.25;4497899;31;34033;-90
2022/10/16 12:06:49;;;;;;;;;;;;;;;24.10;33.94;99914.84;4507402;31;34465;-87
2022/10/16 12:09:27;;;;;;;;;;;;;;;23.75;36.39;99920.28;4504599;31;35121;-88
2022/10/16 12:11:54;;;;;;;;;;;;;;;24.03;34.02;99908.84;4511789;31;32859;-90
2022/10/16 12:14:33;;;;;;;;;;;;;;;24.09;34.62;99908.66;4487769;31;33034;-89
2022/10/16 12:17:23;;;;;;;;;;;;;;;24.21;34.88;99908.28;4494643;31;33750;-91
2022/10/16 12:20:00;;;;;;;;;;;;;;;23.65;34.86;99909.97;4501475;31;34888;-87
2022/10/16 12:22:30;;;;;;;;;;;;;;;24.68;33.49;99903.25;4484909;31;33074;-88
2022/10/16 12:24:58;;;;;;;;;;;;;;;24.78;34.06;99902.97;4499619;31;34073;-86
2022/10/16 12:27:25;;;;;;;;;;;;;;;24.44;33.72;99898.78;4514995;31;35205;-90
2022/10/16 12:29:58;;;;;;;;;;;;;;;24.61;34.28;99893.78;4510372;31;33458;-88
2022/10/16 12:32:33;;;;;;;;;;;;;;;24.25;34.21;99898.47;4505912;31;33280;-88
2022/10/16 12:35:37;;;;;;;;;;;;;;;23.53;35.42;99898.81;4509864;31;33774;-91
2022/10/16 12:38:12;;;;;;;;;;;;;;;24.57;34.00;99889.50;4508009;31;33125;-92
2022/10/16 12:40:39;;;;;;;;;;;;;;;24.10;34.19;99891.00;4493338;31;33500;-92
2022/10/16 12:43:23;;;;;;;;;;;;;;;24.58;33.67;99896.50;4491030;31;33246;-88
2022/10/16 12:46:19;;;;;;;;;;;;;;;24.48;33.44;99890.66;4488517;31;35213;-89
2022/10/16 12:48:48;;;;;;;;;;;;;;;24.74;32.97;99891.59;4505115;31;35126;-85
2022/10/16 12:51:37;;;;;;;;;;;;;;;24.67;33.28;99895.37;4501952;31;33480;-87
2022/10/16 12:54:11;;;;;;;;;;;;;;;23.74;34.24;99892.03;4507635;31;33323;-90
2022/10/16 12:56:57;;;;;;;;;;;;;;;24.33;33.73;99887.63;4508529;31;33652;-88
2022/10/16 12:59:31;;;;;;;;;;;;;;;24.36;33.45;99890.16;4506606;31;34279;-90
2022/10/16 13:02:07;;;;;;;;;;;;;;;24.10;34.59;99899.81;4508482;31;33871;-89
2022/10/16 13:04:40;;;;;;;;;;;;;;;23.58;34.45;99906.62;4512971;31;34084;-89